Time;durP1;ratioP1;P1;durP2;ratioP2;P2;SDS_P1;SDS_P2;PMS_P1;PMS_P2;Temp;Humidity;BMP_temperature;BMP_pressure;BME280_temperature;BME280_humidity;BME280_pressure;Samples;Min_cycle;Max_cycle;Signal;HPM_P1;HPM_P2
2020/12/31 00:01:27;;;;;;;23.65;16.17;;;;;;;2.76;100.00;99947.50;5006922;28;20393;-84
2020/12/31 00:03:54;;;;;;;28.92;15.73;;;;;;;2.75;100.00;99942.38;5025702;28;20261;-85
2020/12/31 00:06:20;;;;;;;26.67;18.25;;;;;;;2.72;100.00;99932.88;5023318;28;20038;-83
2020/12/31 00:08:45;;;;;;;25.30;17.25;;;;;;;2.70;100.00;99942.75;4988425;28;20045;-84
2020/12/31 00:11:12;;;;;;;29.08;18.17;;;;;;;2.68;100.00;99927.00;5000161;28;20188;-83
2020/12/31 00:13:38;;;;;;;32.63;19.67;;;;;;;2.65;100.00;99934.41;5011974;28;20446;-82
2020/12/31 00:16:05;;;;;;;30.38;17.48;;;;;;;2.62;100.00;99935.50;5029859;28;20037;-85
2020/12/31 00:18:30;;;;;;;29.42;18.30;;;;;;;2.59;100.00;99933.13;5021007;28;20049;-84
2020/12/31 00:20:55;;;;;;;29.90;18.23;;;;;;;2.57;100.00;99932.41;5004810;28;20034;-84
2020/12/31 00:23:21;;;;;;;28.17;18.70;;;;;;;2.55;100.00;99934.34;4995978;28;20489;-83
2020/12/31 00:25:49;;;;;;;28.35;18.00;;;;;;;2.52;100.00;99939.91;5000003;28;21195;-84
2020/12/31 00:28:16;;;;;;;24.33;16.48;;;;;;;2.46;100.00;99937.78;5005797;28;20094;-84
2020/12/31 00:30:43;;;;;;;28.92;18.35;;;;;;;2.45;100.00;99931.66;5010664;28;20616;-85
2020/12/31 00:33:09;;;;;;;23.65;14.23;;;;;;;2.38;100.00;99935.81;5025320;28;20466;-84
2020/12/31 00:35:35;;;;;;;25.15;16.02;;;;;;;2.36;100.00;99929.81;5004663;28;20049;-84
2020/12/31 00:38:00;;;;;;;22.45;15.10;;;;;;;2.35;100.00;99930.78;4976479;28;20049;-85
2020/12/31 00:40:25;;;;;;;23.52;14.98;;;;;;;2.33;100.00;99932.72;5010461;28;20099;-85
2020/12/31 00:42:51;;;;;;;24.67;16.02;;;;;;;2.34;100.00;99933.56;4985527;28;20129;-86
2020/12/31 00:45:16;;;;;;;23.48;15.25;;;;;;;2.31;100.00;99926.72;4987818;28;20477;-85
2020/12/31 00:47:41;;;;;;;27.00;17.58;;;;;;;2.31;100.00;99924.06;4993802;28;20044;-84
2020/12/31 00:50:07;;;;;;;29.75;18.88;;;;;;;2.31;100.00;99931.19;5014771;28;20061;-84
2020/12/31 00:52:32;;;;;;;32.28;19.48;;;;;;;2.31;100.00;99921.44;4986424;28;20191;-86
2020/12/31 00:54:57;;;;;;;28.55;19.20;;;;;;;2.30;100.00;99925.03;5003157;28;20077;-84
2020/12/31 00:57:23;;;;;;;28.98;19.20;;;;;;;2.27;100.00;99933.22;5006042;28;20046;-85
2020/12/31 00:59:48;;;;;;;32.22;19.13;;;;;;;2.25;100.00;99921.97;5005940;28;20120;-87
2020/12/31 01:02:14;;;;;;;31.67;21.25;;;;;;;2.25;100.00;99927.25;5004955;28;20046;-86
2020/12/31 01:04:39;;;;;;;32.85;22.17;;;;;;;2.26;100.00;99931.56;5006412;28;20539;-82
2020/12/31 01:07:04;;;;;;;31.35;20.67;;;;;;;2.22;100.00;99920.41;5004760;28;20042;-85
2020/12/31 01:09:30;;;;;;;29.33;17.58;;;;;;;2.22;100.00;99930.16;4998500;28;20493;-86
2020/12/31 01:11:56;;;;;;;33.15;21.40;;;;;;;2.22;100.00;99931.00;4989548;28;20033;-86
2020/12/31 01:14:22;;;;;;;32.08;17.80;;;;;;;2.20;100.00;99911.75;5021531;28;20516;-86
2020/12/31 01:16:49;;;;;;;36.03;20.17;;;;;;;2.20;100.00;99911.75;5020381;28;20144;-85
2020/12/31 01:19:14;;;;;;;37.85;23.00;;;;;;;2.23;100.00;99919.44;5003710;28;20139;-85
2020/12/31 01:21:46;;;;;;;36.10;21.83;;;;;;;2.19;100.00;99910.09;5018118;28;20557;-84
2020/12/31 01:24:13;;;;;;;39.78;22.40;;;;;;;2.22;100.00;99917.75;5024339;28;20038;-85
2020/12/31 01:26:38;;;;;;;35.30;19.00;;;;;;;2.17;100.00;99922.59;5001139;28;20037;-85
2020/12/31 01:29:04;;;;;;;32.25;18.70;;;;;;;2.16;100.00;99925.41;5004924;28;20060;-82
2020/12/31 01:31:30;;;;;;;35.35;21.17;;;;;;;2.13;100.00;99918.56;5006595;28;20046;-86
2020/12/31 01:33:56;;;;;;;31.08;18.77;;;;;;;2.17;100.00;99919.13;5003470;28;20555;-87
2020/12/31 01:36:21;;;;;;;30.13;16.75;;;;;;;2.13;100.00;99921.22;5024942;28;20045;-85
2020/12/31 01:38:47;;;;;;;25.65;16.27;;;;;;;2.14;100.00;99919.41;4999144;28;20277;-83
2020/12/31 01:41:14;;;;;;;29.63;16.50;;;;;;;2.11;100.00;99924.94;5004503;28;20488;-84
2020/12/31 01:43:40;;;;;;;29.38;17.05;;;;;;;2.12;100.00;99922.16;5020043;28;20041;-84
2020/12/31 01:46:10;;;;;;;26.33;16.60;;;;;;;2.11;100.00;99920.50;5004372;28;20429;-85
2020/12/31 01:48:35;;;;;;;26.20;16.73;;;;;;;2.10;100.00;99925.91;5002808;28;20375;-87
2020/12/31 01:51:01;;;;;;;27.08;17.17;;;;;;;2.08;100.00;99923.41;5004053;28;20061;-85
2020/12/31 01:53:26;;;;;;;25.02;15.40;;;;;;;2.08;100.00;99927.88;5018707;28;20049;-84
2020/12/31 01:55:52;;;;;;;19.40;12.25;;;;;;;2.03;100.00;99929.06;5020090;28;20041;-83
2020/12/31 01:58:18;;;;;;;22.83;14.18;;;;;;;2.08;100.00;99925.22;4986990;28;20044;-86
2020/12/31 02:00:43;;;;;;;24.23;15.65;;;;;;;2.02;100.00;99927.41;5007005;28;20107;-84
2020/12/31 02:03:08;;;;;;;22.00;13.57;;;;;;;2.07;100.00;99920.88;4993745;28;20525;-86
2020/12/31 02:05:35;;;;;;;18.88;12.77;;;;;;;2.03;100.00;99912.38;5003165;28;20065;-84
2020/12/31 02:08:00;;;;;;;24.42;16.77;;;;;;;2.02;100.00;99921.28;5029216;28;20037;-85
2020/12/31 02:10:26;;;;;;;20.10;14.30;;;;;;;2.00;100.00;99920.56;4981074;28;20068;-85
2020/12/31 02:12:52;;;;;;;22.05;11.68;;;;;;;1.98;100.00;99918.03;4987022;28;20048;-85
2020/12/31 02:15:18;;;;;;;22.75;13.32;;;;;;;1.98;100.00;99911.91;4994735;28;20354;-85
2020/12/31 02:17:44;;;;;;;20.17;11.40;;;;;;;1.95;100.00;99917.47;5009101;28;20046;-85
2020/12/31 02:20:13;;;;;;;18.75;12.70;;;;;;;1.97;100.00;99913.72;4977945;28;20042;-85
2020/12/31 02:22:44;;;;;;;21.92;14.48;;;;;;;1.95;100.00;99913.00;5006317;28;20062;-85
2020/12/31 02:25:10;;;;;;;22.90;14.48;;;;;;;1.96;100.00;99912.06;5009291;28;20037;-89
2020/12/31 02:27:35;;;;;;;21.77;14.93;;;;;;;2.00;100.00;99915.28;5013170;28;20484;-84
2020/12/31 02:30:00;;;;;;;21.77;13.48;;;;;;;1.97;100.00;99913.72;4994599;28;20396;-86
2020/12/31 02:32:26;;;;;;;21.15;14.55;;;;;;;1.99;100.00;99914.44;5034736;28;20394;-87
2020/12/31 02:34:51;;;;;;;21.85;14.15;;;;;;;1.97;100.00;99916.38;4992423;28;20423;-85
2020/12/31 02:37:18;;;;;;;22.80;13.82;;;;;;;1.93;100.00;99908.84;4991155;28;20033;-82
2020/12/31 02:39:43;;;;;;;20.33;12.43;;;;;;;1.89;100.00;99913.53;5012166;28;20045;-82
2020/12/31 02:42:08;;;;;;;24.58;15.85;;;;;;;1.98;100.00;99911.91;5011289;28;20053;-86
2020/12/31 02:44:34;;;;;;;25.88;14.02;;;;;;;1.93;100.00;99912.31;5012662;28;20141;-85
2020/12/31 02:46:59;;;;;;;22.10;14.32;;;;;;;1.96;100.00;99914.69;5011088;28;20030;-85
2020/12/31 02:49:24;;;;;;;19.08;12.23;;;;;;;1.95;100.00;99909.53;4991614;28;20038;-83
2020/12/31 02:51:51;;;;;;;21.52;13.07;;;;;;;1.95;100.00;99907.72;5026606;28;20128;-85
2020/12/31 02:54:17;;;;;;;18.48;12.07;;;;;;;1.96;100.00;99906.75;4992928;28;20389;-86
2020/12/31 02:56:45;;;;;;;18.42;11.50;;;;;;;1.95;100.00;99910.34;4992063;28;20064;-85
2020/12/31 02:59:11;;;;;;;21.33;12.60;;;;;;;1.94;100.00;99911.34;5027934;28;20049;-84
2020/12/31 03:01:36;;;;;;;19.52;11.73;;;;;;;1.96;100.00;99898.00;4987080;28;20112;-84
2020/12/31 03:04:01;;;;;;;16.92;11.68;;;;;;;1.94;100.00;99906.03;4997312;28;20043;-83
2020/12/31 03:06:27;;;;;;;18.27;11.20;;;;;;;1.94;100.00;99903.41;5012313;28;20077;-86
2020/12/31 03:08:53;;;;;;;18.17;11.57;;;;;;;1.96;100.00;99901.47;4996632;28;20033;-86
2020/12/31 03:11:21;;;;;;;19.35;9.70;;;;;;;1.93;100.00;99900.91;4994692;28;20044;-86
2020/12/31 03:13:52;;;;;;;19.57;12.57;;;;;;;1.94;100.00;99908.69;5013969;28;20042;-83
2020/12/31 03:16:19;;;;;;;16.75;10.65;;;;;;;1.91;100.00;99898.38;5013697;28;20400;-84
2020/12/31 03:18:46;;;;;;;18.40;10.57;;;;;;;1.89;100.00;99897.66;5030044;28;20045;-82
2020/12/31 03:21:12;;;;;;;23.48;13.63;;;;;;;1.92;100.00;99897.38;5013307;28;20053;-84
2020/12/31 03:23:38;;;;;;;19.08;11.93;;;;;;;1.93;100.00;99893.78;5011230;28;20445;-88
2020/12/31 03:26:04;;;;;;;19.10;11.40;;;;;;;1.87;100.00;99898.75;5010005;28;21623;-88
2020/12/31 03:28:31;;;;;;;17.55;10.40;;;;;;;1.84;100.00;99899.84;5010370;28;20140;-83
2020/12/31 03:30:56;;;;;;;19.52;13.35;;;;;;;1.90;100.00;99902.00;5031938;28;20494;-86
2020/12/31 03:33:22;;;;;;;24.15;11.93;;;;;;;1.86;100.00;99889.97;5034527;28;20041;-86
2020/12/31 03:35:50;;;;;;;20.45;12.63;;;;;;;1.86;100.00;99895.28;5015733;28;20025;-88
2020/12/31 03:38:16;;;;;;;19.88;10.85;;;;;;;1.84;100.00;99881.31;5031101;28;20065;-84
2020/12/31 03:40:42;;;;;;;19.00;12.50;;;;;;;1.87;100.00;99894.31;5027985;28;20141;-86
2020/12/31 03:43:08;;;;;;;19.25;13.80;;;;;;;1.85;100.00;99882.19;5011039;28;20120;-87
2020/12/31 03:45:34;;;;;;;20.75;12.80;;;;;;;1.83;100.00;99877.00;5032001;28;20370;-87
2020/12/31 03:48:00;;;;;;;20.02;11.95;;;;;;;1.80;100.00;99891.34;5032927;28;20044;-84
2020/12/31 03:50:26;;;;;;;21.08;14.35;;;;;;;1.84;100.00;99883.97;5012623;28;20052;-83
2020/12/31 03:52:51;;;;;;;21.73;14.10;;;;;;;1.82;100.00;99878.00;4996149;28;20053;-85
2020/12/31 03:55:17;;;;;;;24.65;13.63;;;;;;;1.82;100.00;99882.44;5030133;28;20136;-84
2020/12/31 03:57:43;;;;;;;23.67;12.55;;;;;;;1.81;100.00;99884.22;4997986;28;20103;-87
2020/12/31 04:00:08;;;;;;;22.95;16.02;;;;;;;1.86;100.00;99876.75;5029552;28;20041;-84
2020/12/31 04:02:34;;;;;;;22.33;13.57;;;;;;;1.81;100.00;99871.00;4996986;28;20087;-84
2020/12/31 04:05:00;;;;;;;21.98;12.98;;;;;;;1.80;100.00;99874.63;5028923;28;20038;-84
2020/12/31 04:07:27;;;;;;;24.75;15.43;;;;;;;1.79;100.00;99867.69;5027746;28;20132;-86
2020/12/31 04:09:52;;;;;;;22.55;13.43;;;;;;;1.79;100.00;99873.81;4999539;28;20070;-83
2020/12/31 04:12:18;;;;;;;26.23;15.63;;;;;;;1.83;100.00;99866.44;5012875;28;20061;-82
2020/12/31 04:14:43;;;;;;;22.52;13.18;;;;;;;1.79;100.00;99867.69;4999075;28;20037;-87
2020/12/31 04:17:08;;;;;;;23.15;14.18;;;;;;;1.77;100.00;99867.78;4995807;28;20045;-83
2020/12/31 04:19:34;;;;;;;23.92;16.10;;;;;;;1.79;100.00;99865.03;5022119;28;20040;-85
2020/12/31 04:21:59;;;;;;;24.10;15.38;;;;;;;1.79;100.00;99860.56;5012066;28;20068;-85
2020/12/31 04:24:25;;;;;;;23.95;14.27;;;;;;;1.78;100.00;99855.41;5027408;28;20050;-84
2020/12/31 04:26:51;;;;;;;25.60;14.98;;;;;;;1.78;100.00;99858.03;5012442;28;20037;-85
2020/12/31 04:29:18;;;;;;;27.52;17.65;;;;;;;1.81;100.00;99849.84;5025448;28;20049;-84
2020/12/31 04:31:44;;;;;;;28.55;17.92;;;;;;;1.83;100.00;99862.94;4995290;28;20133;-87
2020/12/31 04:34:10;;;;;;;30.25;18.10;;;;;;;1.82;100.00;99850.72;5010602;28;20100;-87
2020/12/31 04:36:36;;;;;;;30.42;18.92;;;;;;;1.77;100.00;99843.16;5028309;28;20038;-85
2020/12/31 04:39:05;;;;;;;32.08;18.67;;;;;;;1.79;100.00;99851.81;5029016;28;20033;-86
2020/12/31 04:41:30;;;;;;;27.17;15.82;;;;;;;1.80;100.00;99842.88;5027623;28;20049;-84
2020/12/31 04:43:56;;;;;;;30.40;19.83;;;;;;;1.82;100.00;99842.78;5020387;28;20034;-84
2020/12/31 04:46:22;;;;;;;32.67;21.92;;;;;;;1.80;100.00;99846.38;5009416;28;20045;-84
2020/12/31 04:49:11;;;;;;;30.23;18.58;;;;;;;1.79;100.00;99846.50;5014114;28;20061;-89
2020/12/31 04:51:37;;;;;;;33.35;18.30;;;;;;;1.82;100.00;99848.06;5007210;28;20408;-89
2020/12/31 04:54:07;;;;;;;34.92;19.73;;;;;;;1.78;100.00;99843.03;5030951;28;20052;-83
2020/12/31 04:56:37;;;;;;;31.85;19.75;;;;;;;1.76;100.00;99841.50;5026449;28;20393;-86
2020/12/31 04:59:07;;;;;;;33.25;20.15;;;;;;;1.77;100.00;99838.69;5035314;28;20037;-86
2020/12/31 05:01:33;;;;;;;30.55;19.27;;;;;;;1.76;100.00;99841.50;4989624;28;20042;-86
2020/12/31 05:03:58;;;;;;;36.35;22.52;;;;;;;1.80;100.00;99838.44;5008214;28;20037;-88
2020/12/31 05:06:26;;;;;;;33.88;20.55;;;;;;;1.80;100.00;99834.94;5027319;28;20049;-86
2020/12/31 05:08:52;;;;;;;37.80;22.92;;;;;;;1.80;100.00;99837.59;5031316;28;20117;-84
2020/12/31 05:11:18;;;;;;;34.60;21.35;;;;;;;1.74;100.00;99838.13;5027804;28;20168;-87
2020/12/31 05:13:48;;;;;;;38.05;21.65;;;;;;;1.73;100.00;99839.94;5007920;28;20048;-85
2020/12/31 05:16:26;;;;;;;32.47;18.38;;;;;;;1.71;100.00;99843.69;5025112;28;20045;-84
2020/12/31 05:18:51;;;;;;;34.13;18.58;;;;;;;1.74;100.00;99838.13;5011723;28;20064;-85
2020/12/31 05:21:17;;;;;;;33.08;19.35;;;;;;;1.76;100.00;99842.31;4992280;28;20045;-86
2020/12/31 05:23:44;;;;;;;32.85;18.23;;;;;;;1.72;100.00;99848.00;5009707;28;20129;-85
2020/12/31 05:26:09;;;;;;;33.35;20.67;;;;;;;1.75;100.00;99847.72;5027619;28;20490;-87
2020/12/31 05:28:42;;;;;;;34.08;20.90;;;;;;;1.79;100.00;99841.22;5009428;28;20132;-84
2020/12/31 05:31:09;;;;;;;37.30;21.92;;;;;;;1.77;100.00;99841.34;5018247;28;20046;-85
2020/12/31 05:33:43;;;;;;;34.85;19.60;;;;;;;1.72;100.00;99846.19;5026239;28;20044;-85
2020/12/31 05:36:25;;;;;;;34.70;20.35;;;;;;;1.77;100.00;99851.91;5027281;28;20030;-85
2020/12/31 05:38:56;;;;;;;38.17;21.65;;;;;;;1.77;100.00;99841.34;4990220;28;20033;-87
2020/12/31 05:41:25;;;;;;;35.38;19.70;;;;;;;1.71;100.00;99841.88;5006467;28;20053;-84
2020/12/31 05:44:05;;;;;;;36.10;20.17;;;;;;;1.73;100.00;99847.03;5026333;28;20045;-86
2020/12/31 05:46:31;;;;;;;34.20;19.90;;;;;;;1.73;100.00;99849.69;5032559;28;20048;-87
2020/12/31 05:49:02;;;;;;;34.88;18.92;;;;;;;1.71;100.00;99848.97;5024770;28;20025;-86
2020/12/31 05:51:28;;;;;;;31.92;19.27;;;;;;;1.74;100.00;99838.97;5018854;28;20454;-86
2020/12/31 05:54:05;;;;;;;33.40;19.90;;;;;;;1.73;100.00;99847.03;5007247;28;20722;-84
2020/12/31 05:56:32;;;;;;;35.47;19.73;;;;;;;1.76;100.00;99841.50;4990796;28;20065;-85
2020/12/31 05:59:19;;;;;;;40.33;21.77;;;;;;;1.76;100.00;99844.13;5008930;28;20128;-87
2020/12/31 06:01:59;;;;;;;38.00;21.77;;;;;;;1.74;100.00;99846.91;4992137;28;20494;-89
2020/12/31 06:04:30;;;;;;;37.03;21.58;;;;;;;1.74;100.00;99848.69;5007701;28;20058;-86
2020/12/31 06:07:00;;;;;;;41.25;22.08;;;;;;;1.73;100.00;99844.41;5027302;28;20040;-84
2020/12/31 06:09:30;;;;;;;38.60;22.23;;;;;;;1.74;100.00;99854.81;5022824;28;20465;-83
2020/12/31 06:12:08;;;;;;;38.00;20.15;;;;;;;1.70;100.00;99852.59;5027593;28;20045;-88
2020/12/31 06:14:36;;;;;;;37.00;21.33;;;;;;;1.73;100.00;99847.03;5010409;28;20087;-86
2020/12/31 06:17:04;;;;;;;42.10;22.08;;;;;;;1.73;100.00;99852.34;4989341;28;20045;-86
2020/12/31 06:19:36;;;;;;;43.88;22.77;;;;;;;1.71;100.00;99851.63;5008906;28;20041;-85
2020/12/31 06:22:12;;;;;;;40.58;21.45;;;;;;;1.71;100.00;99857.72;5026042;28;20551;-86
2020/12/31 06:24:42;;;;;;;46.40;23.80;;;;;;;1.75;100.00;99855.66;5009116;28;20473;-85
2020/12/31 06:27:10;;;;;;;38.45;18.02;;;;;;;1.73;100.00;99854.97;5010967;28;20037;-84
2020/12/31 06:29:50;;;;;;;44.88;25.58;;;;;;;1.74;100.00;99856.63;5013568;28;20472;-85
2020/12/31 06:32:30;;;;;;;48.42;26.40;;;;;;;1.77;100.00;99859.84;5011621;28;20045;-85
2020/12/31 06:35:06;;;;;;;45.17;25.50;;;;;;;1.75;100.00;99858.31;5003904;28;20037;-87
2020/12/31 06:37:38;;;;;;;46.42;23.98;;;;;;;1.74;100.00;99859.28;5007791;28;20037;-84
2020/12/31 06:40:27;;;;;;;48.13;25.63;;;;;;;1.74;100.00;99864.56;5006479;28;20048;-82
2020/12/31 06:43:29;;;;;;;51.35;24.95;;;;;;;1.79;100.00;99862.38;4993850;28;20041;-90
2020/12/31 06:45:55;;;;;;;49.53;26.23;;;;;;;1.75;100.00;99858.31;4941223;28;20055;-88
2020/12/31 06:48:26;;;;;;;58.17;27.70;;;;;;;1.73;100.00;99855.81;4965585;28;20117;-87
2020/12/31 06:51:11;;;;;;;61.03;29.58;;;;;;;1.74;100.00;99854.81;5019897;28;20388;-86
2020/12/31 06:53:43;;;;;;;59.00;28.77;;;;;;;1.78;100.00;99853.63;4991441;28;20049;-84
2020/12/31 06:56:10;;;;;;;64.00;30.77;;;;;;;1.78;100.00;99863.34;5009673;28;20087;-85
2020/12/31 06:58:37;;;;;;;63.83;32.42;;;;;;;1.78;100.00;99865.97;5008263;28;20037;-85
2020/12/31 07:01:25;;;;;;;64.35;28.48;;;;;;;1.80;100.00;99864.06;5012114;28;20072;-87
2020/12/31 07:03:51;;;;;;;61.60;30.33;;;;;;;1.77;100.00;99865.16;5012751;28;20038;-87
2020/12/31 07:06:23;;;;;;;64.07;30.38;;;;;;;1.79;100.00;99863.22;5011166;28;20125;-87
2020/12/31 07:08:55;;;;;;;68.85;32.00;;;;;;;1.83;100.00;99862.94;5008758;28;20124;-84
2020/12/31 07:11:40;;;;;;;64.28;31.13;;;;;;;1.80;100.00;99866.69;5007820;28;20121;-86
2020/12/31 07:14:17;;;;;;;63.10;29.23;;;;;;;1.77;100.00;99870.44;4992518;28;20037;-87
2020/12/31 07:17:05;;;;;;;61.65;30.67;;;;;;;1.84;100.00;99876.03;4985041;28;20528;-87
2020/12/31 07:19:41;;;;;;;63.25;31.30;;;;;;;1.82;100.00;99874.50;5024599;28;20053;-83
2020/12/31 07:22:10;;;;;;;55.53;25.23;;;;;;;1.80;100.00;99869.34;5008020;28;20053;-82
2020/12/31 07:25:03;;;;;;;58.47;24.15;;;;;;;1.78;100.00;99866.84;5026633;28;20393;-88
2020/12/31 07:27:29;;;;;;;56.88;27.17;;;;;;;1.78;100.00;99868.63;5007304;28;20572;-87
2020/12/31 07:30:01;;;;;;;52.05;23.77;;;;;;;1.78;100.00;99872.13;5025496;28;20045;-85
2020/12/31 07:32:55;;;;;;;48.40;24.92;;;;;;;1.82;100.00;99875.34;4995600;28;20128;-84
2020/12/31 07:35:43;;;;;;;46.80;23.40;;;;;;;1.78;100.00;99866.84;5019613;28;20041;-86
2020/12/31 07:38:16;;;;;;;46.90;23.33;;;;;;;1.80;100.00;99878.09;5023082;28;20087;-86
2020/12/31 07:40:47;;;;;;;41.92;23.45;;;;;;;1.78;100.00;99881.84;5025869;28;20633;-85
2020/12/31 07:43:18;;;;;;;37.08;19.20;;;;;;;1.74;100.00;99880.44;5005728;28;20136;-85
2020/12/31 07:45:54;;;;;;;36.25;19.48;;;;;;;1.72;100.00;99877.09;5011735;28;20049;-88
2020/12/31 07:48:21;;;;;;;35.83;19.85;;;;;;;1.71;100.00;99873.59;4996487;28;20053;-86
2020/12/31 07:50:56;;;;;;;32.78;17.08;;;;;;;1.73;100.00;99878.78;5006972;28;20060;-86
2020/12/31 07:53:22;;;;;;;35.65;18.27;;;;;;;1.71;100.00;99883.34;5030907;28;20041;-84
2020/12/31 07:55:51;;;;;;;30.40;15.45;;;;;;;1.72;100.00;99883.22;5011276;28;20120;-91
2020/12/31 07:58:18;;;;;;;25.65;12.68;;;;;;;1.65;100.00;99887.34;4995964;28;20485;-85
2020/12/31 08:00:44;;;;;;;26.52;14.07;;;;;;;1.67;100.00;99885.44;5028122;28;20930;-88
2020/12/31 08:03:11;;;;;;;24.75;14.15;;;;;;;1.67;100.00;99889.84;4996019;28;20045;-87
2020/12/31 08:05:37;;;;;;;27.77;14.82;;;;;;;1.69;100.00;99887.94;5012214;28;20033;-87
2020/12/31 08:08:02;;;;;;;27.55;13.02;;;;;;;1.67;100.00;99895.16;5012417;28;20041;-86
2020/12/31 08:10:36;;;;;;;25.92;15.02;;;;;;;1.67;100.00;99896.00;5012618;28;20037;-86
2020/12/31 08:13:04;;;;;;;23.42;10.93;;;;;;;1.63;100.00;99888.44;5006715;28;20041;-85
2020/12/31 08:15:31;;;;;;;31.92;13.80;;;;;;;1.64;100.00;99890.13;5027972;28;20044;-87
2020/12/31 08:18:02;;;;;;;30.35;14.85;;;;;;;1.64;100.00;99884.81;5014420;28;20025;-87
2020/12/31 08:20:31;;;;;;;29.45;14.68;;;;;;;1.62;100.00;99889.44;5013930;28;20053;-86
2020/12/31 08:23:00;;;;;;;27.27;13.52;;;;;;;1.58;100.00;99884.41;5027708;28;20401;-82
2020/12/31 08:25:30;;;;;;;30.45;17.08;;;;;;;1.63;100.00;99891.09;4992618;28;20049;-86
2020/12/31 08:27:56;;;;;;;30.88;16.00;;;;;;;1.67;100.00;99889.84;5011833;28;20061;-83
2020/12/31 08:30:23;;;;;;;27.70;14.05;;;;;;;1.60;100.00;99886.06;5027984;28;20136;-86
2020/12/31 08:32:48;;;;;;;28.98;15.95;;;;;;;1.60;100.00;99888.69;5026801;28;20033;-85
2020/12/31 08:35:20;;;;;;;27.38;14.98;;;;;;;1.57;100.00;99888.00;4989504;28;20120;-86
2020/12/31 08:37:57;;;;;;;28.52;14.30;;;;;;;1.60;100.00;99894.81;5027788;28;20118;-84
2020/12/31 08:40:22;;;;;;;26.60;14.50;;;;;;;1.52;100.00;99890.16;5004315;28;20045;-84
2020/12/31 08:42:53;;;;;;;30.13;16.20;;;;;;;1.50;100.00;99889.47;4994321;28;20524;-85
2020/12/31 08:45:32;;;;;;;27.90;14.25;;;;;;;1.54;100.00;99893.53;5010276;28;20053;-85
2020/12/31 08:48:37;;;;;;;24.17;12.57;;;;;;;1.48;100.00;99890.56;5010413;28;20051;-85
2020/12/31 08:51:13;;;;;;;24.15;11.10;;;;;;;1.48;100.00;99886.13;4952776;28;20043;-84
2020/12/31 08:53:52;;;;;;;28.73;15.02;;;;;;;1.53;100.00;99883.09;4949283;28;20147;-85
2020/12/31 08:56:18;;;;;;;26.17;14.32;;;;;;;1.50;100.00;99881.53;4987691;28;20398;-86
2020/12/31 08:58:44;;;;;;;23.90;12.57;;;;;;;1.47;100.00;99880.97;5026524;28;20112;-85
2020/12/31 09:01:26;;;;;;;22.92;11.93;;;;;;;1.48;100.00;99894.06;5007467;28;20050;-84
2020/12/31 09:04:20;;;;;;;25.45;12.45;;;;;;;1.47;100.00;99889.75;5027394;28;20044;-85
2020/12/31 09:06:57;;;;;;;28.90;14.52;;;;;;;1.50;100.00;99893.94;4993549;28;20203;-85
2020/12/31 09:09:26;;;;;;;34.67;15.55;;;;;;;1.54;100.00;99898.81;5008005;28;20171;-82
2020/12/31 09:12:05;;;;;;;32.97;14.63;;;;;;;1.52;100.00;99902.56;5012121;28;20043;-83
2020/12/31 09:14:32;;;;;;;28.88;15.32;;;;;;;1.54;100.00;99896.19;5025338;28;20048;-86
2020/12/31 09:16:58;;;;;;;34.88;16.35;;;;;;;1.60;100.00;99894.00;5011407;28;20029;-84
2020/12/31 09:19:24;;;;;;;35.17;18.33;;;;;;;1.56;100.00;99891.59;5026761;28;20037;-86
2020/12/31 09:21:50;;;;;;;29.40;14.95;;;;;;;1.50;100.00;99884.19;5026223;28;20029;-86
2020/12/31 09:24:17;;;;;;;30.08;14.73;;;;;;;1.57;100.00;99889.78;5027635;28;20041;-86
2020/12/31 09:26:59;;;;;;;25.13;11.90;;;;;;;1.56;100.00;99888.97;5029038;28;20110;-86
2020/12/31 09:29:26;;;;;;;25.27;12.40;;;;;;;1.55;100.00;99889.94;5009798;28;20363;-86
2020/12/31 09:31:53;;;;;;;23.05;11.95;;;;;;;1.56;100.00;99893.41;5014903;28;20072;-83
2020/12/31 09:34:19;;;;;;;19.20;9.40;;;;;;;1.53;100.00;99893.69;5028102;28;20033;-82
2020/12/31 09:36:45;;;;;;;18.45;10.05;;;;;;;1.52;100.00;99891.97;5008947;28;20040;-84
2020/12/31 09:39:11;;;;;;;18.38;10.07;;;;;;;1.54;100.00;99893.53;5008911;28;20124;-85
2020/12/31 09:41:38;;;;;;;19.15;11.05;;;;;;;1.57;100.00;99901.22;5008714;28;20045;-86
2020/12/31 09:44:03;;;;;;;16.35;9.05;;;;;;;1.56;100.00;99899.53;5004540;28;20160;-84
2020/12/31 09:46:29;;;;;;;16.88;9.40;;;;;;;1.58;100.00;99894.97;4984678;28;20132;-88
2020/12/31 09:48:54;;;;;;;17.27;10.13;;;;;;;1.58;100.00;99897.63;5009058;28;20072;-84
2020/12/31 09:51:20;;;;;;;19.30;8.95;;;;;;;1.58;100.00;99894.97;5011663;28;20047;-85
2020/12/31 09:53:47;;;;;;;16.92;9.40;;;;;;;1.56;100.00;99896.91;4996736;28;20445;-87
2020/12/31 09:56:14;;;;;;;21.38;11.00;;;;;;;1.58;100.00;99896.75;5011561;28;20402;-85
2020/12/31 09:58:40;;;;;;;25.05;13.90;;;;;;;1.62;100.00;99902.66;5007888;28;20051;-83
2020/12/31 10:01:06;;;;;;;25.60;14.43;;;;;;;1.61;100.00;99900.94;5002193;28;20874;-85
2020/12/31 10:03:31;;;;;;;25.83;14.35;;;;;;;1.70;100.00;99895.75;5012767;28;21805;-86
2020/12/31 10:05:56;;;;;;;26.23;15.25;;;;;;;1.68;100.00;99887.09;4992669;28;20493;-86
2020/12/31 10:08:22;;;;;;;27.92;16.60;;;;;;;1.73;100.00;99895.47;5009516;28;20297;-84
2020/12/31 10:10:47;;;;;;;24.80;14.10;;;;;;;1.68;100.00;99894.19;5017392;28;20037;-83
2020/12/31 10:13:13;;;;;;;27.88;16.40;;;;;;;1.67;100.00;99901.28;5026119;28;20124;-87
2020/12/31 10:15:38;;;;;;;29.13;16.50;;;;;;;1.66;100.00;99896.94;5026101;28;20041;-85
2020/12/31 10:18:04;;;;;;;25.95;13.02;;;;;;;1.64;100.00;99896.25;5025633;28;20063;-85
2020/12/31 10:20:29;;;;;;;27.98;16.02;;;;;;;1.69;100.00;99895.84;5009647;28;20429;-84
2020/12/31 10:22:55;;;;;;;25.60;14.82;;;;;;;1.71;100.00;99891.28;5023989;28;20068;-84
2020/12/31 10:25:20;;;;;;;28.42;18.02;;;;;;;1.74;100.00;99891.03;5006778;28;20504;-83
2020/12/31 10:27:46;;;;;;;28.20;17.02;;;;;;;1.71;100.00;99886.84;5025381;28;20053;-85
2020/12/31 10:30:11;;;;;;;33.47;19.23;;;;;;;1.80;100.00;99888.69;5020630;28;20466;-84
2020/12/31 10:32:37;;;;;;;31.20;18.02;;;;;;;1.81;100.00;99884.22;5021241;28;20103;-84
2020/12/31 10:35:03;;;;;;;31.63;17.75;;;;;;;1.87;100.00;99877.59;5007710;28;20460;-84
2020/12/31 10:37:29;;;;;;;36.05;21.65;;;;;;;1.86;100.00;99883.84;5027288;28;20057;-83
2020/12/31 10:39:55;;;;;;;35.85;20.00;;;;;;;1.82;100.00;99878.00;5009896;28;20026;-84
2020/12/31 10:42:20;;;;;;;34.25;19.35;;;;;;;1.83;100.00;99871.72;5024549;28;20159;-85
2020/12/31 10:44:45;;;;;;;36.47;22.80;;;;;;;1.93;100.00;99867.34;5009862;28;20061;-84
2020/12/31 10:47:11;;;;;;;38.22;23.58;;;;;;;1.96;100.00;99864.44;5023046;28;20506;-83
2020/12/31 10:49:36;;;;;;;34.92;21.95;;;;;;;2.05;100.00;99861.97;5009096;28;20049;-83
2020/12/31 10:52:01;;;;;;;38.75;22.45;;;;;;;2.00;100.00;99857.88;5011434;28;20052;-83
2020/12/31 10:54:27;;;;;;;38.50;23.05;;;;;;;2.10;100.00;99854.44;5009355;28;20048;-85
2020/12/31 10:56:56;;;;;;;34.95;19.33;;;;;;;1.96;100.00;99859.13;5007666;28;20212;-85
2020/12/31 10:59:21;;;;;;;37.60;22.55;;;;;;;2.11;100.00;99861.44;5023686;28;20041;-85
2020/12/31 11:04:47;;;;;;;38.33;22.50;;;;;;;2.16;100.00;99860.06;4995040;28;20406;-86
2020/12/31 11:07:15;;;;;;;33.55;20.00;;;;;;;2.11;100.00;99864.91;4967956;28;20042;-85
2020/12/31 17:20:11;;;;;;;94.95;45.60;;;;;;;1.30;100.00;99959.88;5013342;28;20064;-83
2020/12/31 17:22:36;;;;;;;109.55;48.47;;;;;;;1.31;100.00;99958.88;5000126;28;20111;-83
2020/12/31 17:25:02;;;;;;;96.75;46.80;;;;;;;1.34;100.00;99965.72;5024962;28;20077;-85
2020/12/31 17:27:28;;;;;;;110.20;47.92;;;;;;;1.39;100.00;99958.28;5009244;28;20041;-84
2020/12/31 17:29:54;;;;;;;102.82;47.15;;;;;;;1.38;100.00;99968.97;5006935;28;20117;-83
2020/12/31 17:32:20;;;;;;;110.13;49.67;;;;;;;1.40;100.00;99972.31;4976126;28;20065;-85
2020/12/31 17:34:45;;;;;;;123.63;61.22;;;;;;;1.41;100.00;99985.44;4996969;28;20500;-83
2020/12/31 17:37:10;;;;;;;137.23;71.05;;;;;;;1.44;100.00;99984.31;4992127;28;20053;-84